sensor_id;sensor_type;location;lat;lon;timestamp;P1;durP1;ratioP1;P2;durP2;ratioP2
28070;SDS011;15383;48.408;9.968;2024-01-11T00:02:17;53.33;;;20.35;;
28070;SDS011;15383;48.408;9.968;2024-01-11T00:04:43;52.80;;;20.52;;
28070;SDS011;15383;48.408;9.968;2024-01-11T00:07:09;49.70;;;18.25;;
28070;SDS011;15383;48.408;9.968;2024-01-11T00:09:38;52.42;;;19.83;;
28070;SDS011;15383;48.408;9.968;2024-01-11T00:12:05;48.50;;;19.88;;
28070;SDS011;15383;48.408;9.968;2024-01-11T00:14:31;50.72;;;18.60;;
28070;SDS011;15383;48.408;9.968;2024-01-11T00:16:56;57.30;;;21.10;;
28070;SDS011;15383;48.408;9.968;2024-01-11T00:19:22;50.78;;;19.02;;
28070;SDS011;15383;48.408;9.968;2024-01-11T00:21:47;48.42;;;19.42;;
28070;SDS011;15383;48.408;9.968;2024-01-11T00:24:13;55.70;;;21.20;;
28070;SDS011;15383;48.408;9.968;2024-01-11T00:26:38;49.55;;;19.20;;
28070;SDS011;15383;48.408;9.968;2024-01-11T00:29:04;51.58;;;20.00;;
28070;SDS011;15383;48.408;9.968;2024-01-11T00:31:29;52.20;;;19.75;;
28070;SDS011;15383;48.408;9.968;2024-01-11T00:33:55;57.45;;;21.25;;
28070;SDS011;15383;48.408;9.968;2024-01-11T00:36:21;49.53;;;19.85;;
28070;SDS011;15383;48.408;9.968;2024-01-11T00:38:46;48.95;;;20.13;;
28070;SDS011;15383;48.408;9.968;2024-01-11T00:41:12;55.63;;;20.00;;
28070;SDS011;15383;48.408;9.968;2024-01-11T00:43:37;54.78;;;21.02;;
28070;SDS011;15383;48.408;9.968;2024-01-11T00:46:03;47.15;;;18.70;;
28070;SDS011;15383;48.408;9.968;2024-01-11T00:48:28;49.53;;;21.13;;
28070;SDS011;15383;48.408;9.968;2024-01-11T00:50:54;54.67;;;20.38;;
28070;SDS011;15383;48.408;9.968;2024-01-11T00:53:20;51.35;;;20.92;;
28070;SDS011;15383;48.408;9.968;2024-01-11T00:55:45;51.30;;;19.90;;
28070;SDS011;15383;48.408;9.968;2024-01-11T00:58:11;48.65;;;20.02;;
28070;SDS011;15383;48.408;9.968;2024-01-11T01:00:36;51.13;;;19.88;;
28070;SDS011;15383;48.408;9.968;2024-01-11T01:03:02;57.90;;;20.40;;
28070;SDS011;15383;48.408;9.968;2024-01-11T01:05:28;53.75;;;19.40;;
28070;SDS011;15383;48.408;9.968;2024-01-11T01:07:53;57.72;;;21.17;;
28070;SDS011;15383;48.408;9.968;2024-01-11T01:10:19;56.60;;;21.17;;
28070;SDS011;15383;48.408;9.968;2024-01-11T01:12:45;58.20;;;19.80;;
28070;SDS011;15383;48.408;9.968;2024-01-11T01:15:10;62.75;;;20.77;;
28070;SDS011;15383;48.408;9.968;2024-01-11T01:17:36;52.42;;;21.38;;
28070;SDS011;15383;48.408;9.968;2024-01-11T01:20:02;52.42;;;20.98;;
28070;SDS011;15383;48.408;9.968;2024-01-11T01:22:28;45.35;;;20.23;;
28070;SDS011;15383;48.408;9.968;2024-01-11T01:24:54;54.13;;;20.58;;
28070;SDS011;15383;48.408;9.968;2024-01-11T01:27:19;56.28;;;20.23;;
28070;SDS011;15383;48.408;9.968;2024-01-11T01:29:45;59.45;;;20.77;;
28070;SDS011;15383;48.408;9.968;2024-01-11T01:32:11;58.83;;;22.25;;
28070;SDS011;15383;48.408;9.968;2024-01-11T01:34:36;59.55;;;20.75;;
28070;SDS011;15383;48.408;9.968;2024-01-11T01:37:02;52.97;;;20.60;;
28070;SDS011;15383;48.408;9.968;2024-01-11T01:39:28;62.00;;;21.48;;
28070;SDS011;15383;48.408;9.968;2024-01-11T01:41:53;58.50;;;20.27;;
28070;SDS011;15383;48.408;9.968;2024-01-11T01:44:19;57.63;;;20.80;;
28070;SDS011;15383;48.408;9.968;2024-01-11T01:46:44;56.55;;;20.33;;
28070;SDS011;15383;48.408;9.968;2024-01-11T01:49:10;46.85;;;20.13;;
28070;SDS011;15383;48.408;9.968;2024-01-11T01:51:36;54.75;;;21.85;;
28070;SDS011;15383;48.408;9.968;2024-01-11T01:54:02;62.60;;;21.15;;
28070;SDS011;15383;48.408;9.968;2024-01-11T01:56:28;53.58;;;19.83;;
28070;SDS011;15383;48.408;9.968;2024-01-11T01:58:54;53.97;;;22.75;;
28070;SDS011;15383;48.408;9.968;2024-01-11T02:01:20;54.92;;;21.50;;
28070;SDS011;15383;48.408;9.968;2024-01-11T02:03:49;53.55;;;20.08;;
28070;SDS011;15383;48.408;9.968;2024-01-11T02:06:16;55.00;;;22.15;;
28070;SDS011;15383;48.408;9.968;2024-01-11T02:08:45;56.83;;;20.42;;
28070;SDS011;15383;48.408;9.968;2024-01-11T02:11:11;65.53;;;20.58;;
28070;SDS011;15383;48.408;9.968;2024-01-11T02:13:37;54.60;;;21.45;;
28070;SDS011;15383;48.408;9.968;2024-01-11T02:16:03;56.50;;;21.38;;
28070;SDS011;15383;48.408;9.968;2024-01-11T02:18:29;66.30;;;22.05;;
28070;SDS011;15383;48.408;9.968;2024-01-11T02:20:55;56.83;;;21.17;;
28070;SDS011;15383;48.408;9.968;2024-01-11T02:23:21;56.95;;;20.83;;
28070;SDS011;15383;48.408;9.968;2024-01-11T02:25:49;64.70;;;21.70;;
28070;SDS011;15383;48.408;9.968;2024-01-11T02:28:15;63.65;;;23.38;;
28070;SDS011;15383;48.408;9.968;2024-01-11T02:30:40;61.88;;;20.02;;
28070;SDS011;15383;48.408;9.968;2024-01-11T02:33:07;56.15;;;20.38;;
28070;SDS011;15383;48.408;9.968;2024-01-11T02:35:33;60.22;;;20.75;;
28070;SDS011;15383;48.408;9.968;2024-01-11T02:38:00;55.20;;;21.35;;
28070;SDS011;15383;48.408;9.968;2024-01-11T02:40:26;63.92;;;22.77;;
28070;SDS011;15383;48.408;9.968;2024-01-11T02:42:52;61.92;;;21.63;;
28070;SDS011;15383;48.408;9.968;2024-01-11T02:45:17;55.95;;;20.30;;
28070;SDS011;15383;48.408;9.968;2024-01-11T02:47:43;63.58;;;20.92;;
28070;SDS011;15383;48.408;9.968;2024-01-11T02:50:09;64.25;;;19.60;;
28070;SDS011;15383;48.408;9.968;2024-01-11T02:52:37;53.60;;;19.63;;
28070;SDS011;15383;48.408;9.968;2024-01-11T02:55:02;53.30;;;20.00;;
28070;SDS011;15383;48.408;9.968;2024-01-11T02:57:28;63.40;;;19.67;;
28070;SDS011;15383;48.408;9.968;2024-01-11T02:59:54;57.65;;;19.35;;
28070;SDS011;15383;48.408;9.968;2024-01-11T03:02:19;52.22;;;20.90;;
28070;SDS011;15383;48.408;9.968;2024-01-11T03:04:45;51.33;;;19.45;;
28070;SDS011;15383;48.408;9.968;2024-01-11T03:07:11;59.28;;;19.63;;
28070;SDS011;15383;48.408;9.968;2024-01-11T03:09:36;55.00;;;19.73;;
28070;SDS011;15383;48.408;9.968;2024-01-11T03:12:02;51.58;;;18.60;;
28070;SDS011;15383;48.408;9.968;2024-01-11T03:14:28;49.80;;;18.77;;
28070;SDS011;15383;48.408;9.968;2024-01-11T03:16:53;56.20;;;18.92;;
28070;SDS011;15383;48.408;9.968;2024-01-11T03:19:19;51.08;;;20.17;;
28070;SDS011;15383;48.408;9.968;2024-01-11T03:21:44;60.47;;;20.08;;
28070;SDS011;15383;48.408;9.968;2024-01-11T03:24:11;56.22;;;19.20;;
28070;SDS011;15383;48.408;9.968;2024-01-11T03:26:37;52.97;;;19.33;;
28070;SDS011;15383;48.408;9.968;2024-01-11T03:29:02;53.85;;;19.83;;
28070;SDS011;15383;48.408;9.968;2024-01-11T03:31:28;54.90;;;19.45;;
28070;SDS011;15383;48.408;9.968;2024-01-11T03:33:53;59.60;;;19.92;;
28070;SDS011;15383;48.408;9.968;2024-01-11T03:36:22;60.30;;;21.92;;
28070;SDS011;15383;48.408;9.968;2024-01-11T03:41:15;56.10;;;19.20;;
28070;SDS011;15383;48.408;9.968;2024-01-11T03:43:41;50.75;;;19.25;;
28070;SDS011;15383;48.408;9.968;2024-01-11T03:46:06;56.97;;;19.23;;
28070;SDS011;15383;48.408;9.968;2024-01-11T03:48:32;51.40;;;19.00;;
28070;SDS011;15383;48.408;9.968;2024-01-11T03:50:58;56.00;;;19.65;;
28070;SDS011;15383;48.408;9.968;2024-01-11T03:53:23;66.43;;;19.55;;
28070;SDS011;15383;48.408;9.968;2024-01-11T03:55:49;49.08;;;19.55;;
28070;SDS011;15383;48.408;9.968;2024-01-11T03:58:14;54.30;;;18.83;;
28070;SDS011;15383;48.408;9.968;2024-01-11T04:00:40;50.10;;;18.90;;
28070;SDS011;15383;48.408;9.968;2024-01-11T04:03:06;59.53;;;19.65;;
28070;SDS011;15383;48.408;9.968;2024-01-11T04:05:32;50.90;;;19.60;;
28070;SDS011;15383;48.408;9.968;2024-01-11T04:07:57;57.97;;;20.67;;
28070;SDS011;15383;48.408;9.968;2024-01-11T04:10:23;56.15;;;20.05;;
28070;SDS011;15383;48.408;9.968;2024-01-11T04:12:48;55.17;;;21.00;;
28070;SDS011;15383;48.408;9.968;2024-01-11T04:15:14;52.40;;;20.63;;
28070;SDS011;15383;48.408;9.968;2024-01-11T04:17:40;55.75;;;19.70;;
28070;SDS011;15383;48.408;9.968;2024-01-11T04:20:06;54.63;;;20.55;;
28070;SDS011;15383;48.408;9.968;2024-01-11T04:22:33;54.58;;;19.88;;
28070;SDS011;15383;48.408;9.968;2024-01-11T04:24:59;60.10;;;20.63;;
28070;SDS011;15383;48.408;9.968;2024-01-11T04:27:25;56.67;;;21.02;;
28070;SDS011;15383;48.408;9.968;2024-01-11T04:29:51;63.00;;;20.42;;
28070;SDS011;15383;48.408;9.968;2024-01-11T04:32:16;54.22;;;19.70;;
28070;SDS011;15383;48.408;9.968;2024-01-11T04:34:42;64.05;;;21.73;;
28070;SDS011;15383;48.408;9.968;2024-01-11T04:37:07;58.75;;;20.42;;
28070;SDS011;15383;48.408;9.968;2024-01-11T04:39:33;54.88;;;19.50;;
28070;SDS011;15383;48.408;9.968;2024-01-11T04:41:59;51.17;;;20.90;;
28070;SDS011;15383;48.408;9.968;2024-01-11T04:44:25;57.42;;;19.80;;
28070;SDS011;15383;48.408;9.968;2024-01-11T04:46:51;59.65;;;21.23;;
28070;SDS011;15383;48.408;9.968;2024-01-11T04:49:16;56.25;;;20.20;;
28070;SDS011;15383;48.408;9.968;2024-01-11T04:51:42;55.90;;;21.52;;
28070;SDS011;15383;48.408;9.968;2024-01-11T04:54:08;57.75;;;20.42;;
28070;SDS011;15383;48.408;9.968;2024-01-11T04:56:33;55.90;;;20.25;;
28070;SDS011;15383;48.408;9.968;2024-01-11T04:58:59;64.10;;;21.30;;
28070;SDS011;15383;48.408;9.968;2024-01-11T05:01:24;69.32;;;22.63;;
28070;SDS011;15383;48.408;9.968;2024-01-11T05:03:50;73.18;;;21.83;;
28070;SDS011;15383;48.408;9.968;2024-01-11T05:06:19;56.95;;;21.20;;
28070;SDS011;15383;48.408;9.968;2024-01-11T05:08:46;60.75;;;20.95;;
28070;SDS011;15383;48.408;9.968;2024-01-11T05:13:42;70.53;;;21.63;;
28070;SDS011;15383;48.408;9.968;2024-01-11T05:16:15;67.32;;;21.10;;
28070;SDS011;15383;48.408;9.968;2024-01-11T05:18:44;55.00;;;19.95;;
28070;SDS011;15383;48.408;9.968;2024-01-11T05:21:10;64.35;;;20.65;;
28070;SDS011;15383;48.408;9.968;2024-01-11T05:23:35;62.70;;;21.40;;
28070;SDS011;15383;48.408;9.968;2024-01-11T05:26:01;59.03;;;21.63;;
28070;SDS011;15383;48.408;9.968;2024-01-11T05:28:27;71.10;;;22.33;;
28070;SDS011;15383;48.408;9.968;2024-01-11T05:30:53;60.28;;;21.75;;
28070;SDS011;15383;48.408;9.968;2024-01-11T05:33:18;71.25;;;22.60;;
28070;SDS011;15383;48.408;9.968;2024-01-11T05:35:44;57.22;;;21.00;;
28070;SDS011;15383;48.408;9.968;2024-01-11T05:38:09;57.15;;;20.92;;
28070;SDS011;15383;48.408;9.968;2024-01-11T05:40:35;68.90;;;22.50;;
28070;SDS011;15383;48.408;9.968;2024-01-11T05:43:00;71.78;;;22.02;;
28070;SDS011;15383;48.408;9.968;2024-01-11T05:45:26;67.45;;;21.23;;
28070;SDS011;15383;48.408;9.968;2024-01-11T05:47:51;64.88;;;22.65;;
28070;SDS011;15383;48.408;9.968;2024-01-11T05:50:17;60.70;;;21.05;;
28070;SDS011;15383;48.408;9.968;2024-01-11T05:52:43;61.97;;;22.00;;
28070;SDS011;15383;48.408;9.968;2024-01-11T05:55:08;60.20;;;21.35;;
28070;SDS011;15383;48.408;9.968;2024-01-11T05:57:34;72.22;;;22.45;;
28070;SDS011;15383;48.408;9.968;2024-01-11T05:59:59;69.25;;;22.42;;
28070;SDS011;15383;48.408;9.968;2024-01-11T06:02:25;71.65;;;23.65;;
28070;SDS011;15383;48.408;9.968;2024-01-11T06:04:50;63.75;;;22.48;;
28070;SDS011;15383;48.408;9.968;2024-01-11T06:07:16;73.40;;;24.25;;
28070;SDS011;15383;48.408;9.968;2024-01-11T06:09:42;74.50;;;22.95;;
28070;SDS011;15383;48.408;9.968;2024-01-11T06:12:08;69.03;;;22.80;;
28070;SDS011;15383;48.408;9.968;2024-01-11T06:14:34;66.40;;;22.70;;
28070;SDS011;15383;48.408;9.968;2024-01-11T06:16:59;69.75;;;23.95;;
28070;SDS011;15383;48.408;9.968;2024-01-11T06:19:25;63.25;;;21.98;;
28070;SDS011;15383;48.408;9.968;2024-01-11T06:21:50;55.95;;;23.15;;
28070;SDS011;15383;48.408;9.968;2024-01-11T06:24:16;76.82;;;24.92;;
28070;SDS011;15383;48.408;9.968;2024-01-11T06:26:42;69.20;;;22.17;;
28070;SDS011;15383;48.408;9.968;2024-01-11T06:29:07;65.60;;;21.92;;
28070;SDS011;15383;48.408;9.968;2024-01-11T06:31:33;64.82;;;21.42;;
28070;SDS011;15383;48.408;9.968;2024-01-11T06:33:58;65.78;;;22.02;;
28070;SDS011;15383;48.408;9.968;2024-01-11T06:36:24;66.20;;;22.98;;
28070;SDS011;15383;48.408;9.968;2024-01-11T06:38:49;76.35;;;24.55;;
28070;SDS011;15383;48.408;9.968;2024-01-11T06:41:15;68.55;;;24.25;;
28070;SDS011;15383;48.408;9.968;2024-01-11T06:43:40;64.35;;;23.42;;
28070;SDS011;15383;48.408;9.968;2024-01-11T06:46:06;66.80;;;23.15;;
28070;SDS011;15383;48.408;9.968;2024-01-11T06:48:32;69.63;;;23.63;;
28070;SDS011;15383;48.408;9.968;2024-01-11T06:50:58;60.05;;;21.85;;
28070;SDS011;15383;48.408;9.968;2024-01-11T06:53:23;65.00;;;23.95;;
28070;SDS011;15383;48.408;9.968;2024-01-11T06:55:49;57.60;;;22.70;;
28070;SDS011;15383;48.408;9.968;2024-01-11T06:58:16;71.80;;;25.20;;
28070;SDS011;15383;48.408;9.968;2024-01-11T07:00:42;61.17;;;22.75;;
28070;SDS011;15383;48.408;9.968;2024-01-11T07:03:11;60.92;;;20.73;;
28070;SDS011;15383;48.408;9.968;2024-01-11T07:05:37;58.30;;;22.88;;
28070;SDS011;15383;48.408;9.968;2024-01-11T07:08:02;65.55;;;23.00;;
28070;SDS011;15383;48.408;9.968;2024-01-11T07:10:29;66.50;;;24.17;;
28070;SDS011;15383;48.408;9.968;2024-01-11T07:12:54;69.05;;;24.83;;
28070;SDS011;15383;48.408;9.968;2024-01-11T07:15:20;71.30;;;23.73;;
28070;SDS011;15383;48.408;9.968;2024-01-11T07:17:45;65.88;;;24.73;;
28070;SDS011;15383;48.408;9.968;2024-01-11T07:20:11;62.25;;;24.02;;
28070;SDS011;15383;48.408;9.968;2024-01-11T07:22:38;73.60;;;24.80;;
28070;SDS011;15383;48.408;9.968;2024-01-11T07:25:03;73.90;;;23.52;;
28070;SDS011;15383;48.408;9.968;2024-01-11T07:27:29;64.53;;;23.05;;
28070;SDS011;15383;48.408;9.968;2024-01-11T07:29:55;72.25;;;25.50;;
28070;SDS011;15383;48.408;9.968;2024-01-11T07:32:20;67.70;;;22.92;;
28070;SDS011;15383;48.408;9.968;2024-01-11T07:34:46;73.70;;;25.15;;
28070;SDS011;15383;48.408;9.968;2024-01-11T07:37:11;64.55;;;23.35;;
28070;SDS011;15383;48.408;9.968;2024-01-11T07:39:37;76.35;;;25.20;;
28070;SDS011;15383;48.408;9.968;2024-01-11T07:42:02;72.55;;;24.85;;
28070;SDS011;15383;48.408;9.968;2024-01-11T07:44:28;80.35;;;25.98;;
28070;SDS011;15383;48.408;9.968;2024-01-11T07:46:53;60.20;;;22.75;;
28070;SDS011;15383;48.408;9.968;2024-01-11T07:49:19;64.13;;;24.85;;
28070;SDS011;15383;48.408;9.968;2024-01-11T07:51:45;73.88;;;23.58;;
28070;SDS011;15383;48.408;9.968;2024-01-11T07:54:11;70.35;;;24.25;;
28070;SDS011;15383;48.408;9.968;2024-01-11T07:56:37;72.47;;;26.92;;
28070;SDS011;15383;48.408;9.968;2024-01-11T07:59:02;72.97;;;24.73;;
28070;SDS011;15383;48.408;9.968;2024-01-11T08:01:28;69.68;;;24.25;;
28070;SDS011;15383;48.408;9.968;2024-01-11T08:03:53;72.78;;;25.52;;
28070;SDS011;15383;48.408;9.968;2024-01-11T08:06:19;69.18;;;24.38;;
28070;SDS011;15383;48.408;9.968;2024-01-11T08:08:45;71.78;;;26.65;;
28070;SDS011;15383;48.408;9.968;2024-01-11T08:11:16;66.70;;;24.50;;
28070;SDS011;15383;48.408;9.968;2024-01-11T08:13:42;75.20;;;24.60;;
28070;SDS011;15383;48.408;9.968;2024-01-11T08:16:07;66.50;;;25.02;;
28070;SDS011;15383;48.408;9.968;2024-01-11T08:18:34;69.72;;;26.33;;
28070;SDS011;15383;48.408;9.968;2024-01-11T08:21:00;70.03;;;24.70;;
28070;SDS011;15383;48.408;9.968;2024-01-11T08:23:25;64.75;;;23.20;;
28070;SDS011;15383;48.408;9.968;2024-01-11T08:25:51;75.50;;;25.80;;
28070;SDS011;15383;48.408;9.968;2024-01-11T08:28:17;73.35;;;24.02;;
28070;SDS011;15383;48.408;9.968;2024-01-11T08:30:43;68.35;;;24.20;;
28070;SDS011;15383;48.408;9.968;2024-01-11T08:33:09;65.68;;;24.15;;
28070;SDS011;15383;48.408;9.968;2024-01-11T08:35:35;66.80;;;23.73;;
28070;SDS011;15383;48.408;9.968;2024-01-11T08:38:00;68.93;;;25.92;;
28070;SDS011;15383;48.408;9.968;2024-01-11T08:40:26;72.95;;;24.58;;
28070;SDS011;15383;48.408;9.968;2024-01-11T08:42:52;66.53;;;23.17;;
28070;SDS011;15383;48.408;9.968;2024-01-11T08:45:17;73.57;;;26.27;;
28070;SDS011;15383;48.408;9.968;2024-01-11T08:47:46;69.47;;;23.85;;
28070;SDS011;15383;48.408;9.968;2024-01-11T08:50:15;74.18;;;26.50;;
28070;SDS011;15383;48.408;9.968;2024-01-11T08:52:41;74.72;;;26.35;;
28070;SDS011;15383;48.408;9.968;2024-01-11T08:55:07;73.07;;;23.58;;
28070;SDS011;15383;48.408;9.968;2024-01-11T08:57:33;74.88;;;26.15;;
28070;SDS011;15383;48.408;9.968;2024-01-11T09:00:00;66.70;;;25.17;;
28070;SDS011;15383;48.408;9.968;2024-01-11T09:02:27;73.60;;;25.08;;
28070;SDS011;15383;48.408;9.968;2024-01-11T09:04:52;67.40;;;25.45;;
28070;SDS011;15383;48.408;9.968;2024-01-11T09:07:18;68.80;;;26.08;;
28070;SDS011;15383;48.408;9.968;2024-01-11T09:09:43;66.32;;;25.08;;
28070;SDS011;15383;48.408;9.968;2024-01-11T09:12:09;69.93;;;25.15;;
28070;SDS011;15383;48.408;9.968;2024-01-11T09:14:34;73.72;;;25.52;;
28070;SDS011;15383;48.408;9.968;2024-01-11T09:17:00;75.25;;;25.65;;
28070;SDS011;15383;48.408;9.968;2024-01-11T09:19:26;68.90;;;25.20;;
28070;SDS011;15383;48.408;9.968;2024-01-11T09:21:51;70.60;;;24.83;;
28070;SDS011;15383;48.408;9.968;2024-01-11T09:24:17;68.97;;;26.25;;
28070;SDS011;15383;48.408;9.968;2024-01-11T09:26:42;65.13;;;25.63;;
28070;SDS011;15383;48.408;9.968;2024-01-11T09:29:08;67.53;;;24.60;;
28070;SDS011;15383;48.408;9.968;2024-01-11T09:31:33;70.05;;;24.52;;
28070;SDS011;15383;48.408;9.968;2024-01-11T09:33:59;69.57;;;24.65;;
28070;SDS011;15383;48.408;9.968;2024-01-11T09:36:24;83.50;;;26.52;;
28070;SDS011;15383;48.408;9.968;2024-01-11T09:38:50;70.43;;;25.73;;
28070;SDS011;15383;48.408;9.968;2024-01-11T09:41:15;66.97;;;24.33;;
28070;SDS011;15383;48.408;9.968;2024-01-11T09:43:42;72.03;;;24.85;;
28070;SDS011;15383;48.408;9.968;2024-01-11T09:46:08;68.85;;;25.42;;
28070;SDS011;15383;48.408;9.968;2024-01-11T09:48:36;63.63;;;23.70;;
28070;SDS011;15383;48.408;9.968;2024-01-11T09:51:04;61.97;;;25.55;;
28070;SDS011;15383;48.408;9.968;2024-01-11T09:53:33;60.20;;;24.65;;
28070;SDS011;15383;48.408;9.968;2024-01-11T09:55:59;68.95;;;25.25;;
28070;SDS011;15383;48.408;9.968;2024-01-11T09:58:25;78.15;;;26.13;;
28070;SDS011;15383;48.408;9.968;2024-01-11T10:00:55;65.72;;;24.13;;
28070;SDS011;15383;48.408;9.968;2024-01-11T10:03:24;71.93;;;25.70;;
28070;SDS011;15383;48.408;9.968;2024-01-11T10:05:51;70.50;;;26.23;;
28070;SDS011;15383;48.408;9.968;2024-01-11T10:08:21;68.15;;;25.27;;
28070;SDS011;15383;48.408;9.968;2024-01-11T10:10:48;65.47;;;23.20;;
28070;SDS011;15383;48.408;9.968;2024-01-11T10:13:15;67.05;;;25.17;;
28070;SDS011;15383;48.408;9.968;2024-01-11T10:15:41;66.03;;;24.45;;
28070;SDS011;15383;48.408;9.968;2024-01-11T10:18:10;68.95;;;25.02;;
28070;SDS011;15383;48.408;9.968;2024-01-11T10:20:37;67.43;;;25.40;;
28070;SDS011;15383;48.408;9.968;2024-01-11T10:23:03;66.35;;;25.13;;
28070;SDS011;15383;48.408;9.968;2024-01-11T10:25:29;64.28;;;25.58;;
28070;SDS011;15383;48.408;9.968;2024-01-11T10:27:54;75.03;;;25.67;;
28070;SDS011;15383;48.408;9.968;2024-01-11T10:30:20;64.35;;;23.20;;
28070;SDS011;15383;48.408;9.968;2024-01-11T10:32:48;72.90;;;23.73;;
28070;SDS011;15383;48.408;9.968;2024-01-11T10:35:14;70.32;;;25.42;;
28070;SDS011;15383;48.408;9.968;2024-01-11T10:37:42;59.53;;;22.98;;
28070;SDS011;15383;48.408;9.968;2024-01-11T10:40:08;69.38;;;25.27;;
28070;SDS011;15383;48.408;9.968;2024-01-11T10:42:41;72.75;;;24.27;;
28070;SDS011;15383;48.408;9.968;2024-01-11T10:45:18;66.15;;;23.83;;
28070;SDS011;15383;48.408;9.968;2024-01-11T10:47:53;72.93;;;26.23;;
28070;SDS011;15383;48.408;9.968;2024-01-11T10:50:23;65.15;;;24.23;;
28070;SDS011;15383;48.408;9.968;2024-01-11T10:53:37;77.05;;;25.33;;
28070;SDS011;15383;48.408;9.968;2024-01-11T10:55:55;74.22;;;25.95;;
28070;SDS011;15383;48.408;9.968;2024-01-11T10:58:22;69.88;;;25.13;;
28070;SDS011;15383;48.408;9.968;2024-01-11T11:00:49;71.80;;;26.77;;
28070;SDS011;15383;48.408;9.968;2024-01-11T11:03:19;65.60;;;24.67;;
28070;SDS011;15383;48.408;9.968;2024-01-11T11:05:48;58.38;;;23.00;;
28070;SDS011;15383;48.408;9.968;2024-01-11T11:08:15;52.22;;;22.73;;
28070;SDS011;15383;48.408;9.968;2024-01-11T11:10:42;55.10;;;19.25;;
28070;SDS011;15383;48.408;9.968;2024-01-11T11:13:09;56.80;;;20.90;;
28070;SDS011;15383;48.408;9.968;2024-01-11T11:15:37;53.15;;;20.92;;
28070;SDS011;15383;48.408;9.968;2024-01-11T11:18:04;61.22;;;22.58;;
28070;SDS011;15383;48.408;9.968;2024-01-11T11:20:31;61.83;;;23.23;;
28070;SDS011;15383;48.408;9.968;2024-01-11T11:23:04;58.70;;;21.98;;
28070;SDS011;15383;48.408;9.968;2024-01-11T11:25:31;70.30;;;24.48;;
28070;SDS011;15383;48.408;9.968;2024-01-11T11:27:57;59.75;;;23.35;;
28070;SDS011;15383;48.408;9.968;2024-01-11T11:30:23;66.85;;;25.02;;
28070;SDS011;15383;48.408;9.968;2024-01-11T11:32:49;71.03;;;24.92;;
28070;SDS011;15383;48.408;9.968;2024-01-11T11:35:14;74.85;;;26.15;;
28070;SDS011;15383;48.408;9.968;2024-01-11T11:37:40;73.35;;;24.80;;
28070;SDS011;15383;48.408;9.968;2024-01-11T11:40:06;69.10;;;24.70;;
28070;SDS011;15383;48.408;9.968;2024-01-11T11:42:34;68.63;;;25.52;;
28070;SDS011;15383;48.408;9.968;2024-01-11T11:45:00;69.10;;;25.98;;
28070;SDS011;15383;48.408;9.968;2024-01-11T11:47:32;67.97;;;25.45;;
28070;SDS011;15383;48.408;9.968;2024-01-11T11:50:06;75.95;;;27.08;;
28070;SDS011;15383;48.408;9.968;2024-01-11T11:52:33;71.68;;;26.40;;
28070;SDS011;15383;48.408;9.968;2024-01-11T11:55:00;75.22;;;28.92;;
28070;SDS011;15383;48.408;9.968;2024-01-11T11:57:26;74.28;;;26.95;;
28070;SDS011;15383;48.408;9.968;2024-01-11T11:59:54;73.63;;;24.98;;
28070;SDS011;15383;48.408;9.968;2024-01-11T12:02:24;70.72;;;25.40;;
28070;SDS011;15383;48.408;9.968;2024-01-11T12:04:51;69.90;;;26.02;;
28070;SDS011;15383;48.408;9.968;2024-01-11T12:07:18;65.40;;;26.05;;
28070;SDS011;15383;48.408;9.968;2024-01-11T12:09:45;67.25;;;26.88;;
28070;SDS011;15383;48.408;9.968;2024-01-11T12:12:11;73.43;;;26.70;;
28070;SDS011;15383;48.408;9.968;2024-01-11T12:14:38;62.00;;;25.45;;
28070;SDS011;15383;48.408;9.968;2024-01-11T12:17:04;72.28;;;26.80;;
28070;SDS011;15383;48.408;9.968;2024-01-11T12:19:31;70.13;;;26.35;;
28070;SDS011;15383;48.408;9.968;2024-01-11T12:21:57;66.80;;;25.10;;
28070;SDS011;15383;48.408;9.968;2024-01-11T12:24:23;64.80;;;25.35;;
28070;SDS011;15383;48.408;9.968;2024-01-11T12:26:49;67.25;;;26.17;;
28070;SDS011;15383;48.408;9.968;2024-01-11T12:29:19;65.55;;;24.88;;
28070;SDS011;15383;48.408;9.968;2024-01-11T12:31:45;74.35;;;27.23;;
28070;SDS011;15383;48.408;9.968;2024-01-11T12:34:14;68.22;;;26.08;;
28070;SDS011;15383;48.408;9.968;2024-01-11T12:36:40;68.75;;;26.23;;
28070;SDS011;15383;48.408;9.968;2024-01-11T12:39:06;74.50;;;26.02;;
28070;SDS011;15383;48.408;9.968;2024-01-11T12:41:33;79.20;;;25.52;;
28070;SDS011;15383;48.408;9.968;2024-01-11T12:43:59;70.13;;;26.80;;
28070;SDS011;15383;48.408;9.968;2024-01-11T12:46:25;80.82;;;26.27;;
28070;SDS011;15383;48.408;9.968;2024-01-11T12:48:51;68.20;;;25.23;;
28070;SDS011;15383;48.408;9.968;2024-01-11T12:51:17;71.80;;;25.98;;
28070;SDS011;15383;48.408;9.968;2024-01-11T12:53:50;70.65;;;26.80;;
28070;SDS011;15383;48.408;9.968;2024-01-11T12:56:16;63.33;;;25.92;;
28070;SDS011;15383;48.408;9.968;2024-01-11T12:58:43;61.50;;;23.70;;
28070;SDS011;15383;48.408;9.968;2024-01-11T13:01:11;67.90;;;27.20;;
28070;SDS011;15383;48.408;9.968;2024-01-11T13:03:38;75.93;;;27.73;;
28070;SDS011;15383;48.408;9.968;2024-01-11T13:06:04;63.95;;;26.40;;
28070;SDS011;15383;48.408;9.968;2024-01-11T13:08:31;61.40;;;27.58;;
28070;SDS011;15383;48.408;9.968;2024-01-11T13:10:57;63.92;;;25.15;;
28070;SDS011;15383;48.408;9.968;2024-01-11T13:13:22;63.20;;;23.88;;
28070;SDS011;15383;48.408;9.968;2024-01-11T13:15:48;58.78;;;24.65;;
28070;SDS011;15383;48.408;9.968;2024-01-11T13:18:14;64.20;;;26.88;;
28070;SDS011;15383;48.408;9.968;2024-01-11T13:20:40;64.05;;;26.20;;
28070;SDS011;15383;48.408;9.968;2024-01-11T13:23:15;60.00;;;24.55;;
28070;SDS011;15383;48.408;9.968;2024-01-11T13:25:44;62.30;;;23.65;;
28070;SDS011;15383;48.408;9.968;2024-01-11T13:28:11;63.13;;;26.00;;
28070;SDS011;15383;48.408;9.968;2024-01-11T13:30:40;71.80;;;26.75;;
28070;SDS011;15383;48.408;9.968;2024-01-11T13:35:37;66.68;;;23.10;;
28070;SDS011;15383;48.408;9.968;2024-01-11T13:38:04;68.22;;;25.80;;
28070;SDS011;15383;48.408;9.968;2024-01-11T13:40:30;73.93;;;27.00;;
28070;SDS011;15383;48.408;9.968;2024-01-11T13:42:56;60.75;;;23.98;;
28070;SDS011;15383;48.408;9.968;2024-01-11T13:45:23;79.72;;;26.67;;
28070;SDS011;15383;48.408;9.968;2024-01-11T13:47:49;68.13;;;26.17;;
28070;SDS011;15383;48.408;9.968;2024-01-11T13:50:15;67.05;;;27.00;;
28070;SDS011;15383;48.408;9.968;2024-01-11T13:52:41;67.30;;;26.23;;
28070;SDS011;15383;48.408;9.968;2024-01-11T13:55:08;72.82;;;26.55;;
28070;SDS011;15383;48.408;9.968;2024-01-11T13:57:37;73.10;;;27.38;;
28070;SDS011;15383;48.408;9.968;2024-01-11T14:00:03;74.32;;;26.90;;
28070;SDS011;15383;48.408;9.968;2024-01-11T14:02:30;68.75;;;27.13;;
28070;SDS011;15383;48.408;9.968;2024-01-11T14:04:55;67.55;;;26.25;;
28070;SDS011;15383;48.408;9.968;2024-01-11T14:07:21;66.65;;;26.75;;
28070;SDS011;15383;48.408;9.968;2024-01-11T14:09:47;63.85;;;24.60;;
28070;SDS011;15383;48.408;9.968;2024-01-11T14:12:12;61.75;;;26.40;;
28070;SDS011;15383;48.408;9.968;2024-01-11T14:14:40;63.47;;;26.60;;
28070;SDS011;15383;48.408;9.968;2024-01-11T14:17:06;69.38;;;25.38;;
28070;SDS011;15383;48.408;9.968;2024-01-11T14:19:33;60.83;;;25.98;;
28070;SDS011;15383;48.408;9.968;2024-01-11T14:21:58;69.05;;;26.02;;
28070;SDS011;15383;48.408;9.968;2024-01-11T14:24:24;75.57;;;27.23;;